sensor_id;sensor_type;location;lat;lon;timestamp;temperature;humidity
10249;DHT22;5169;50.560;9.714;2023-12-14T00:02:14;6.50;99.90
10249;DHT22;5169;50.560;9.714;2023-12-14T00:04:40;6.40;99.90
10249;DHT22;5169;50.560;9.714;2023-12-14T00:07:14;6.30;99.90
10249;DHT22;5169;50.560;9.714;2023-12-14T00:09:43;6.10;99.90
10249;DHT22;5169;50.560;9.714;2023-12-14T00:12:09;5.90;99.90
10249;DHT22;5169;50.560;9.714;2023-12-14T00:14:35;5.90;99.90
10249;DHT22;5169;50.560;9.714;2023-12-14T00:17:00;5.90;99.90
10249;DHT22;5169;50.560;9.714;2023-12-14T00:19:26;6.10;99.90
10249;DHT22;5169;50.560;9.714;2023-12-14T00:21:54;6.30;99.90
10249;DHT22;5169;50.560;9.714;2023-12-14T00:24:22;6.30;99.90
10249;DHT22;5169;50.560;9.714;2023-12-14T00:26:47;6.30;99.90
10249;DHT22;5169;50.560;9.714;2023-12-14T00:29:13;6.20;99.90
10249;DHT22;5169;50.560;9.714;2023-12-14T00:31:38;6.20;99.90
10249;DHT22;5169;50.560;9.714;2023-12-14T00:34:04;6.00;99.90
10249;DHT22;5169;50.560;9.714;2023-12-14T00:36:31;5.90;99.90
10249;DHT22;5169;50.560;9.714;2023-12-14T00:39:02;5.90;99.90
10249;DHT22;5169;50.560;9.714;2023-12-14T00:41:28;5.90;99.90
10249;DHT22;5169;50.560;9.714;2023-12-14T00:43:56;5.90;99.90
10249;DHT22;5169;50.560;9.714;2023-12-14T00:46:23;6.00;99.90
10249;DHT22;5169;50.560;9.714;2023-12-14T00:48:49;6.10;99.90
10249;DHT22;5169;50.560;9.714;2023-12-14T00:51:14;6.20;99.90
10249;DHT22;5169;50.560;9.714;2023-12-14T00:53:40;6.30;99.90
10249;DHT22;5169;50.560;9.714;2023-12-14T00:56:08;6.40;99.90
10249;DHT22;5169;50.560;9.714;2023-12-14T00:58:33;6.40;99.90
10249;DHT22;5169;50.560;9.714;2023-12-14T01:01:01;6.40;99.90
10249;DHT22;5169;50.560;9.714;2023-12-14T01:03:27;6.30;99.90
10249;DHT22;5169;50.560;9.714;2023-12-14T01:05:52;6.20;99.90
10249;DHT22;5169;50.560;9.714;2023-12-14T01:08:18;6.00;99.90
10249;DHT22;5169;50.560;9.714;2023-12-14T01:10:45;6.00;99.90
10249;DHT22;5169;50.560;9.714;2023-12-14T01:13:11;6.10;99.90
10249;DHT22;5169;50.560;9.714;2023-12-14T01:15:37;6.20;99.90
10249;DHT22;5169;50.560;9.714;2023-12-14T01:18:02;6.40;99.90
10249;DHT22;5169;50.560;9.714;2023-12-14T01:20:29;6.40;99.90
10249;DHT22;5169;50.560;9.714;2023-12-14T01:22:55;6.40;99.90
10249;DHT22;5169;50.560;9.714;2023-12-14T01:25:23;6.30;99.90
10249;DHT22;5169;50.560;9.714;2023-12-14T01:27:50;6.20;99.90
10249;DHT22;5169;50.560;9.714;2023-12-14T01:30:19;6.20;99.90
10249;DHT22;5169;50.560;9.714;2023-12-14T01:32:44;6.20;99.90
10249;DHT22;5169;50.560;9.714;2023-12-14T01:35:10;6.20;99.90
10249;DHT22;5169;50.560;9.714;2023-12-14T01:37:38;6.30;99.90
10249;DHT22;5169;50.560;9.714;2023-12-14T01:40:06;6.30;99.90
10249;DHT22;5169;50.560;9.714;2023-12-14T01:42:32;6.40;99.90
10249;DHT22;5169;50.560;9.714;2023-12-14T01:44:57;6.30;99.90
10249;DHT22;5169;50.560;9.714;2023-12-14T01:47:23;6.30;99.90
10249;DHT22;5169;50.560;9.714;2023-12-14T01:49:49;6.30;99.90
10249;DHT22;5169;50.560;9.714;2023-12-14T01:52:14;6.30;99.90
10249;DHT22;5169;50.560;9.714;2023-12-14T01:54:40;6.30;99.90
10249;DHT22;5169;50.560;9.714;2023-12-14T01:57:10;6.30;99.90
10249;DHT22;5169;50.560;9.714;2023-12-14T01:59:36;6.30;99.90
10249;DHT22;5169;50.560;9.714;2023-12-14T02:02:04;6.30;99.90
10249;DHT22;5169;50.560;9.714;2023-12-14T02:04:30;6.30;99.90
10249;DHT22;5169;50.560;9.714;2023-12-14T02:06:56;6.20;99.90
10249;DHT22;5169;50.560;9.714;2023-12-14T02:09:24;6.20;99.90
10249;DHT22;5169;50.560;9.714;2023-12-14T02:11:51;6.30;99.90
10249;DHT22;5169;50.560;9.714;2023-12-14T02:14:16;6.20;99.90
10249;DHT22;5169;50.560;9.714;2023-12-14T02:16:44;6.30;99.90
10249;DHT22;5169;50.560;9.714;2023-12-14T02:19:12;6.30;99.90
10249;DHT22;5169;50.560;9.714;2023-12-14T02:21:38;6.30;99.90
10249;DHT22;5169;50.560;9.714;2023-12-14T02:24:04;6.30;99.90
10249;DHT22;5169;50.560;9.714;2023-12-14T02:26:29;6.10;99.90
10249;DHT22;5169;50.560;9.714;2023-12-14T02:28:55;6.00;99.90
10249;DHT22;5169;50.560;9.714;2023-12-14T02:31:23;6.10;99.90
10249;DHT22;5169;50.560;9.714;2023-12-14T02:33:49;6.20;99.90
10249;DHT22;5169;50.560;9.714;2023-12-14T02:36:15;6.10;99.90
10249;DHT22;5169;50.560;9.714;2023-12-14T02:38:43;6.20;99.90
10249;DHT22;5169;50.560;9.714;2023-12-14T02:41:13;6.20;99.90
10249;DHT22;5169;50.560;9.714;2023-12-14T02:43:38;6.30;99.90
10249;DHT22;5169;50.560;9.714;2023-12-14T02:46:06;6.40;99.90
10249;DHT22;5169;50.560;9.714;2023-12-14T02:48:33;6.20;99.90
10249;DHT22;5169;50.560;9.714;2023-12-14T02:51:00;6.20;99.90
10249;DHT22;5169;50.560;9.714;2023-12-14T02:53:25;6.10;99.90
10249;DHT22;5169;50.560;9.714;2023-12-14T02:55:53;6.20;99.90
10249;DHT22;5169;50.560;9.714;2023-12-14T02:58:22;6.00;99.90
10249;DHT22;5169;50.560;9.714;2023-12-14T03:00:50;6.00;99.90
10249;DHT22;5169;50.560;9.714;2023-12-14T03:03:15;6.20;99.90
10249;DHT22;5169;50.560;9.714;2023-12-14T03:05:41;6.20;99.90
10249;DHT22;5169;50.560;9.714;2023-12-14T03:08:07;6.30;99.90
10249;DHT22;5169;50.560;9.714;2023-12-14T03:10:32;6.50;99.90
10249;DHT22;5169;50.560;9.714;2023-12-14T03:12:58;6.40;99.90
10249;DHT22;5169;50.560;9.714;2023-12-14T03:15:23;6.20;99.90
10249;DHT22;5169;50.560;9.714;2023-12-14T03:17:51;6.00;99.90
10249;DHT22;5169;50.560;9.714;2023-12-14T03:20:18;5.90;99.90
10249;DHT22;5169;50.560;9.714;2023-12-14T03:22:43;5.90;99.90
10249;DHT22;5169;50.560;9.714;2023-12-14T03:25:09;5.90;99.90
10249;DHT22;5169;50.560;9.714;2023-12-14T03:27:35;6.00;99.90
10249;DHT22;5169;50.560;9.714;2023-12-14T03:30:01;6.00;99.90
10249;DHT22;5169;50.560;9.714;2023-12-14T03:32:33;6.00;99.90
10249;DHT22;5169;50.560;9.714;2023-12-14T03:34:58;5.90;99.90
10249;DHT22;5169;50.560;9.714;2023-12-14T03:37:26;5.90;99.90
10249;DHT22;5169;50.560;9.714;2023-12-14T03:39:52;6.00;99.90
10249;DHT22;5169;50.560;9.714;2023-12-14T03:42:17;6.30;99.90
10249;DHT22;5169;50.560;9.714;2023-12-14T03:44:45;6.40;99.90
10249;DHT22;5169;50.560;9.714;2023-12-14T03:47:10;6.50;99.90
10249;DHT22;5169;50.560;9.714;2023-12-14T03:49:37;6.50;99.90
10249;DHT22;5169;50.560;9.714;2023-12-14T03:52:04;6.40;99.90
10249;DHT22;5169;50.560;9.714;2023-12-14T03:54:32;6.50;99.90
10249;DHT22;5169;50.560;9.714;2023-12-14T03:57:00;6.50;99.90
10249;DHT22;5169;50.560;9.714;2023-12-14T03:59:25;6.50;99.90
10249;DHT22;5169;50.560;9.714;2023-12-14T04:01:51;6.50;99.90
10249;DHT22;5169;50.560;9.714;2023-12-14T04:04:19;6.50;99.90
10249;DHT22;5169;50.560;9.714;2023-12-14T04:06:44;6.30;99.90
10249;DHT22;5169;50.560;9.714;2023-12-14T04:09:10;6.20;99.90
10249;DHT22;5169;50.560;9.714;2023-12-14T04:11:40;6.10;99.90
10249;DHT22;5169;50.560;9.714;2023-12-14T04:14:05;6.00;99.90
10249;DHT22;5169;50.560;9.714;2023-12-14T04:16:35;6.00;99.90
10249;DHT22;5169;50.560;9.714;2023-12-14T04:19:00;6.00;99.90
10249;DHT22;5169;50.560;9.714;2023-12-14T04:21:28;6.10;99.90
10249;DHT22;5169;50.560;9.714;2023-12-14T04:23:54;6.10;99.90
10249;DHT22;5169;50.560;9.714;2023-12-14T04:26:21;6.10;99.90
10249;DHT22;5169;50.560;9.714;2023-12-14T04:28:50;6.20;99.90
10249;DHT22;5169;50.560;9.714;2023-12-14T04:31:15;6.30;99.90
10249;DHT22;5169;50.560;9.714;2023-12-14T04:33:41;6.20;99.90
10249;DHT22;5169;50.560;9.714;2023-12-14T04:36:09;6.40;99.90
10249;DHT22;5169;50.560;9.714;2023-12-14T04:38:37;6.50;99.90
10249;DHT22;5169;50.560;9.714;2023-12-14T04:41:02;6.30;99.90
10249;DHT22;5169;50.560;9.714;2023-12-14T04:43:28;6.50;99.90
10249;DHT22;5169;50.560;9.714;2023-12-14T04:45:57;6.50;99.90
10249;DHT22;5169;50.560;9.714;2023-12-14T04:48:23;6.60;99.90
10249;DHT22;5169;50.560;9.714;2023-12-14T04:50:48;6.50;99.90
10249;DHT22;5169;50.560;9.714;2023-12-14T04:53:19;6.50;99.90
10249;DHT22;5169;50.560;9.714;2023-12-14T04:55:47;6.40;99.90
10249;DHT22;5169;50.560;9.714;2023-12-14T04:58:12;6.30;99.90
10249;DHT22;5169;50.560;9.714;2023-12-14T05:00:38;6.30;99.90
10249;DHT22;5169;50.560;9.714;2023-12-14T05:03:04;6.30;99.90
10249;DHT22;5169;50.560;9.714;2023-12-14T05:05:31;6.30;99.90
10249;DHT22;5169;50.560;9.714;2023-12-14T05:07:57;6.30;99.90
10249;DHT22;5169;50.560;9.714;2023-12-14T05:10:23;6.30;99.90
10249;DHT22;5169;50.560;9.714;2023-12-14T05:12:51;6.30;99.90
10249;DHT22;5169;50.560;9.714;2023-12-14T05:15:17;6.30;99.90
10249;DHT22;5169;50.560;9.714;2023-12-14T05:17:45;6.40;99.90
10249;DHT22;5169;50.560;9.714;2023-12-14T05:20:11;6.50;99.90
10249;DHT22;5169;50.560;9.714;2023-12-14T05:22:37;6.50;99.90
10249;DHT22;5169;50.560;9.714;2023-12-14T05:25:03;6.60;99.90
10249;DHT22;5169;50.560;9.714;2023-12-14T05:27:29;6.40;99.90
10249;DHT22;5169;50.560;9.714;2023-12-14T05:29:55;6.30;99.90
10249;DHT22;5169;50.560;9.714;2023-12-14T05:32:23;6.30;99.90
10249;DHT22;5169;50.560;9.714;2023-12-14T05:34:48;6.30;99.90
10249;DHT22;5169;50.560;9.714;2023-12-14T05:37:14;6.20;99.90
10249;DHT22;5169;50.560;9.714;2023-12-14T05:39:42;6.20;99.90
10249;DHT22;5169;50.560;9.714;2023-12-14T05:42:09;6.40;99.90
10249;DHT22;5169;50.560;9.714;2023-12-14T05:44:34;6.30;99.90
10249;DHT22;5169;50.560;9.714;2023-12-14T05:47:00;6.40;99.90
10249;DHT22;5169;50.560;9.714;2023-12-14T05:49:25;6.30;99.90
10249;DHT22;5169;50.560;9.714;2023-12-14T05:51:51;6.40;99.90
10249;DHT22;5169;50.560;9.714;2023-12-14T05:54:17;6.50;99.90
10249;DHT22;5169;50.560;9.714;2023-12-14T05:56:45;6.60;99.90
10249;DHT22;5169;50.560;9.714;2023-12-14T05:59:10;6.50;99.90
10249;DHT22;5169;50.560;9.714;2023-12-14T06:01:36;6.30;99.90
10249;DHT22;5169;50.560;9.714;2023-12-14T06:04:02;6.40;99.90
10249;DHT22;5169;50.560;9.714;2023-12-14T06:06:27;6.30;99.90
10249;DHT22;5169;50.560;9.714;2023-12-14T06:08:53;6.10;99.90
10249;DHT22;5169;50.560;9.714;2023-12-14T06:11:18;6.10;99.90
10249;DHT22;5169;50.560;9.714;2023-12-14T06:13:46;5.90;99.90
10249;DHT22;5169;50.560;9.714;2023-12-14T06:16:12;5.90;99.90
10249;DHT22;5169;50.560;9.714;2023-12-14T06:18:39;5.90;99.90
10249;DHT22;5169;50.560;9.714;2023-12-14T06:21:07;5.90;99.90
10249;DHT22;5169;50.560;9.714;2023-12-14T06:23:35;5.80;99.90
10249;DHT22;5169;50.560;9.714;2023-12-14T06:26:03;5.90;99.90
10249;DHT22;5169;50.560;9.714;2023-12-14T06:28:31;5.90;99.90
10249;DHT22;5169;50.560;9.714;2023-12-14T06:30:56;5.90;99.90
10249;DHT22;5169;50.560;9.714;2023-12-14T06:33:22;6.10;99.90
10249;DHT22;5169;50.560;9.714;2023-12-14T06:35:50;6.10;99.90
10249;DHT22;5169;50.560;9.714;2023-12-14T06:38:16;6.10;99.90
10249;DHT22;5169;50.560;9.714;2023-12-14T06:40:41;6.20;99.90
10249;DHT22;5169;50.560;9.714;2023-12-14T06:43:07;6.40;99.90
10249;DHT22;5169;50.560;9.714;2023-12-14T06:45:33;6.50;99.90
10249;DHT22;5169;50.560;9.714;2023-12-14T06:48:04;6.60;99.90
10249;DHT22;5169;50.560;9.714;2023-12-14T06:50:30;6.40;99.90
10249;DHT22;5169;50.560;9.714;2023-12-14T06:52:55;6.40;99.90
10249;DHT22;5169;50.560;9.714;2023-12-14T06:55:21;6.40;99.90
10249;DHT22;5169;50.560;9.714;2023-12-14T06:57:49;6.40;99.90
10249;DHT22;5169;50.560;9.714;2023-12-14T07:00:14;6.40;99.90
10249;DHT22;5169;50.560;9.714;2023-12-14T07:02:45;6.40;99.90
10249;DHT22;5169;50.560;9.714;2023-12-14T07:05:11;6.40;99.90
10249;DHT22;5169;50.560;9.714;2023-12-14T07:07:41;6.50;99.90
10249;DHT22;5169;50.560;9.714;2023-12-14T07:10:09;6.40;99.90
10249;DHT22;5169;50.560;9.714;2023-12-14T07:12:37;6.40;99.90
10249;DHT22;5169;50.560;9.714;2023-12-14T07:15:05;6.40;99.90
10249;DHT22;5169;50.560;9.714;2023-12-14T07:17:31;6.40;99.90
10249;DHT22;5169;50.560;9.714;2023-12-14T07:19:56;6.50;99.90
10249;DHT22;5169;50.560;9.714;2023-12-14T07:22:22;6.50;99.90
10249;DHT22;5169;50.560;9.714;2023-12-14T07:24:48;6.60;99.90
10249;DHT22;5169;50.560;9.714;2023-12-14T07:27:18;6.50;99.90
10249;DHT22;5169;50.560;9.714;2023-12-14T07:29:43;6.60;99.90
10249;DHT22;5169;50.560;9.714;2023-12-14T07:32:09;6.60;99.90
10249;DHT22;5169;50.560;9.714;2023-12-14T07:34:37;6.60;99.90
10249;DHT22;5169;50.560;9.714;2023-12-14T07:37:03;6.70;99.90
10249;DHT22;5169;50.560;9.714;2023-12-14T07:39:28;6.80;99.90
10249;DHT22;5169;50.560;9.714;2023-12-14T07:41:56;6.80;99.90
10249;DHT22;5169;50.560;9.714;2023-12-14T07:44:22;6.80;99.90
10249;DHT22;5169;50.560;9.714;2023-12-14T07:46:48;6.70;99.90
10249;DHT22;5169;50.560;9.714;2023-12-14T07:49:18;6.70;99.90
10249;DHT22;5169;50.560;9.714;2023-12-14T07:51:46;6.70;99.90
10249;DHT22;5169;50.560;9.714;2023-12-14T07:54:12;6.60;99.90
10249;DHT22;5169;50.560;9.714;2023-12-14T07:56:37;6.70;99.90
10249;DHT22;5169;50.560;9.714;2023-12-14T07:59:03;6.70;99.90
10249;DHT22;5169;50.560;9.714;2023-12-14T08:01:34;6.70;99.90
10249;DHT22;5169;50.560;9.714;2023-12-14T08:04:00;6.70;99.90
10249;DHT22;5169;50.560;9.714;2023-12-14T08:06:25;6.70;99.90
10249;DHT22;5169;50.560;9.714;2023-12-14T08:08:54;6.60;99.90
10249;DHT22;5169;50.560;9.714;2023-12-14T08:11:20;6.60;99.90
10249;DHT22;5169;50.560;9.714;2023-12-14T08:13:45;6.50;99.90
10249;DHT22;5169;50.560;9.714;2023-12-14T08:16:12;6.40;99.90
10249;DHT22;5169;50.560;9.714;2023-12-14T08:18:38;6.30;99.90
10249;DHT22;5169;50.560;9.714;2023-12-14T08:21:04;6.40;99.90
10249;DHT22;5169;50.560;9.714;2023-12-14T08:23:29;6.40;99.90
10249;DHT22;5169;50.560;9.714;2023-12-14T08:25:56;6.40;99.90
10249;DHT22;5169;50.560;9.714;2023-12-14T08:28:25;6.50;99.90
10249;DHT22;5169;50.560;9.714;2023-12-14T08:30:51;6.50;99.90
10249;DHT22;5169;50.560;9.714;2023-12-14T08:33:16;6.60;99.90
10249;DHT22;5169;50.560;9.714;2023-12-14T08:35:42;6.70;99.90
10249;DHT22;5169;50.560;9.714;2023-12-14T08:38:08;6.80;99.90
10249;DHT22;5169;50.560;9.714;2023-12-14T08:40:33;6.70;99.90
10249;DHT22;5169;50.560;9.714;2023-12-14T08:43:02;6.70;99.90
10249;DHT22;5169;50.560;9.714;2023-12-14T08:45:28;6.60;99.90
10249;DHT22;5169;50.560;9.714;2023-12-14T08:47:54;6.60;99.90
10249;DHT22;5169;50.560;9.714;2023-12-14T08:50:20;6.70;99.90
10249;DHT22;5169;50.560;9.714;2023-12-14T08:52:45;6.80;99.90
10249;DHT22;5169;50.560;9.714;2023-12-14T08:55:12;6.70;99.90
10249;DHT22;5169;50.560;9.714;2023-12-14T08:57:40;6.70;99.90
10249;DHT22;5169;50.560;9.714;2023-12-14T09:00:06;6.70;99.90
10249;DHT22;5169;50.560;9.714;2023-12-14T09:02:35;6.70;99.90
10249;DHT22;5169;50.560;9.714;2023-12-14T09:05:00;6.70;99.90
10249;DHT22;5169;50.560;9.714;2023-12-14T09:07:28;6.70;99.90
10249;DHT22;5169;50.560;9.714;2023-12-14T09:09:54;6.70;99.90
10249;DHT22;5169;50.560;9.714;2023-12-14T09:12:20;6.60;99.90
10249;DHT22;5169;50.560;9.714;2023-12-14T09:14:45;6.60;99.90
10249;DHT22;5169;50.560;9.714;2023-12-14T09:17:11;6.60;99.90
10249;DHT22;5169;50.560;9.714;2023-12-14T09:19:37;6.50;99.90
10249;DHT22;5169;50.560;9.714;2023-12-14T09:22:05;6.60;99.90
10249;DHT22;5169;50.560;9.714;2023-12-14T09:24:33;6.70;99.90
10249;DHT22;5169;50.560;9.714;2023-12-14T09:26:58;6.70;99.90
10249;DHT22;5169;50.560;9.714;2023-12-14T09:29:24;6.60;99.90
10249;DHT22;5169;50.560;9.714;2023-12-14T09:31:50;6.70;99.90
10249;DHT22;5169;50.560;9.714;2023-12-14T09:34:17;6.80;99.90
10249;DHT22;5169;50.560;9.714;2023-12-14T09:36:43;6.80;99.90
10249;DHT22;5169;50.560;9.714;2023-12-14T09:39:09;6.80;99.90
10249;DHT22;5169;50.560;9.714;2023-12-14T09:41:37;6.80;99.90
10249;DHT22;5169;50.560;9.714;2023-12-14T09:44:04;6.90;99.90
10249;DHT22;5169;50.560;9.714;2023-12-14T09:46:30;7.10;99.90
10249;DHT22;5169;50.560;9.714;2023-12-14T09:49:02;7.10;99.90
10249;DHT22;5169;50.560;9.714;2023-12-14T09:51:29;7.10;99.90
10249;DHT22;5169;50.560;9.714;2023-12-14T09:53:58;7.10;99.90
10249;DHT22;5169;50.560;9.714;2023-12-14T09:56:27;7.20;99.90
10249;DHT22;5169;50.560;9.714;2023-12-14T09:58:53;7.20;99.90
10249;DHT22;5169;50.560;9.714;2023-12-14T10:01:26;7.20;99.90
10249;DHT22;5169;50.560;9.714;2023-12-14T10:06:35;7.20;99.90
10249;DHT22;5169;50.560;9.714;2023-12-14T10:09:01;7.10;99.90
10249;DHT22;5169;50.560;9.714;2023-12-14T10:11:29;7.10;99.90
10249;DHT22;5169;50.560;9.714;2023-12-14T10:13:57;7.00;99.90
10249;DHT22;5169;50.560;9.714;2023-12-14T10:16:34;7.00;99.90
10249;DHT22;5169;50.560;9.714;2023-12-14T10:19:00;7.00;99.90
10249;DHT22;5169;50.560;9.714;2023-12-14T10:21:28;7.00;99.90
10249;DHT22;5169;50.560;9.714;2023-12-14T10:23:59;7.00;99.90
10249;DHT22;5169;50.560;9.714;2023-12-14T10:26:28;7.00;99.90
10249;DHT22;5169;50.560;9.714;2023-12-14T10:28:54;7.00;99.90
10249;DHT22;5169;50.560;9.714;2023-12-14T10:31:20;6.90;99.90
10249;DHT22;5169;50.560;9.714;2023-12-14T10:33:49;6.90;99.90
10249;DHT22;5169;50.560;9.714;2023-12-14T10:36:18;6.90;99.90
10249;DHT22;5169;50.560;9.714;2023-12-14T10:38:48;6.90;99.90
10249;DHT22;5169;50.560;9.714;2023-12-14T10:41:17;6.80;99.90
10249;DHT22;5169;50.560;9.714;2023-12-14T10:43:48;6.70;99.90
10249;DHT22;5169;50.560;9.714;2023-12-14T10:46:16;6.70;99.90
10249;DHT22;5169;50.560;9.714;2023-12-14T10:48:52;6.70;99.90
10249;DHT22;5169;50.560;9.714;2023-12-14T10:51:22;6.80;99.90
10249;DHT22;5169;50.560;9.714;2023-12-14T10:53:48;6.80;99.90
10249;DHT22;5169;50.560;9.714;2023-12-14T10:56:16;6.80;99.90
10249;DHT22;5169;50.560;9.714;2023-12-14T11:01:14;6.70;99.90
10249;DHT22;5169;50.560;9.714;2023-12-14T11:03:41;6.60;99.90
10249;DHT22;5169;50.560;9.714;2023-12-14T11:09:07;6.70;99.90
10249;DHT22;5169;50.560;9.714;2023-12-14T11:14:25;6.80;99.90
10249;DHT22;5169;50.560;9.714;2023-12-14T11:17:03;6.80;99.90
10249;DHT22;5169;50.560;9.714;2023-12-14T11:19:30;6.80;99.90
10249;DHT22;5169;50.560;9.714;2023-12-14T11:22:10;6.80;99.90
10249;DHT22;5169;50.560;9.714;2023-12-14T11:24:36;6.70;99.90
10249;DHT22;5169;50.560;9.714;2023-12-14T11:27:06;6.70;99.90
10249;DHT22;5169;50.560;9.714;2023-12-14T11:29:39;6.60;99.90
10249;DHT22;5169;50.560;9.714;2023-12-14T11:32:07;6.50;99.90
10249;DHT22;5169;50.560;9.714;2023-12-14T11:34:33;6.60;99.90
10249;DHT22;5169;50.560;9.714;2023-12-14T11:36:58;6.70;99.90
10249;DHT22;5169;50.560;9.714;2023-12-14T11:39:24;6.70;99.90
10249;DHT22;5169;50.560;9.714;2023-12-14T11:44:28;6.70;99.90
10249;DHT22;5169;50.560;9.714;2023-12-14T11:46:53;6.70;99.90
10249;DHT22;5169;50.560;9.714;2023-12-14T11:49:19;6.60;99.90
10249;DHT22;5169;50.560;9.714;2023-12-14T11:51:51;6.60;99.90
10249;DHT22;5169;50.560;9.714;2023-12-14T11:54:17;6.70;99.90
10249;DHT22;5169;50.560;9.714;2023-12-14T11:56:49;6.70;99.90
10249;DHT22;5169;50.560;9.714;2023-12-14T11:59:19;6.70;99.90
10249;DHT22;5169;50.560;9.714;2023-12-14T12:01:59;6.60;99.90
10249;DHT22;5169;50.560;9.714;2023-12-14T12:04:26;6.60;99.90
10249;DHT22;5169;50.560;9.714;2023-12-14T12:07:32;6.50;99.90
10249;DHT22;5169;50.560;9.714;2023-12-14T12:09:58;6.50;99.90
10249;DHT22;5169;50.560;9.714;2023-12-14T12:12:24;6.50;99.90
10249;DHT22;5169;50.560;9.714;2023-12-14T12:14:50;6.50;99.90
10249;DHT22;5169;50.560;9.714;2023-12-14T12:17:18;6.50;99.90
10249;DHT22;5169;50.560;9.714;2023-12-14T12:19:45;6.40;99.90
10249;DHT22;5169;50.560;9.714;2023-12-14T12:22:11;6.50;99.90
10249;DHT22;5169;50.560;9.714;2023-12-14T12:24:36;6.50;99.90
10249;DHT22;5169;50.560;9.714;2023-12-14T12:27:03;6.40;99.90
10249;DHT22;5169;50.560;9.714;2023-12-14T12:29:31;6.40;99.90
10249;DHT22;5169;50.560;9.714;2023-12-14T12:31:59;6.50;99.90
10249;DHT22;5169;50.560;9.714;2023-12-14T12:34:25;6.40;99.90
10249;DHT22;5169;50.560;9.714;2023-12-14T12:36:54;6.50;99.90
10249;DHT22;5169;50.560;9.714;2023-12-14T12:39:20;6.40;99.90
10249;DHT22;5169;50.560;9.714;2023-12-14T12:41:45;6.50;99.90
10249;DHT22;5169;50.560;9.714;2023-12-14T12:44:11;6.50;99.90
10249;DHT22;5169;50.560;9.714;2023-12-14T12:46:43;6.50;99.90
10249;DHT22;5169;50.560;9.714;2023-12-14T12:49:09;6.50;99.90
10249;DHT22;5169;50.560;9.714;2023-12-14T12:51:34;6.30;99.90
10249;DHT22;5169;50.560;9.714;2023-12-14T12:54:00;6.30;99.90
10249;DHT22;5169;50.560;9.714;2023-12-14T12:56:29;6.20;99.90
10249;DHT22;5169;50.560;9.714;2023-12-14T12:58:57;6.30;99.90
10249;DHT22;5169;50.560;9.714;2023-12-14T13:01:23;6.20;99.90
10249;DHT22;5169;50.560;9.714;2023-12-14T13:03:55;6.10;99.90
10249;DHT22;5169;50.560;9.714;2023-12-14T13:06:24;6.20;99.90
10249;DHT22;5169;50.560;9.714;2023-12-14T13:08:50;6.20;99.90
10249;DHT22;5169;50.560;9.714;2023-12-14T13:11:16;6.20;99.90
10249;DHT22;5169;50.560;9.714;2023-12-14T13:13:42;6.10;99.90
10249;DHT22;5169;50.560;9.714;2023-12-14T13:16:09;6.20;99.90
10249;DHT22;5169;50.560;9.714;2023-12-14T13:18:35;6.20;99.90
10249;DHT22;5169;50.560;9.714;2023-12-14T13:21:04;6.30;99.90
10249;DHT22;5169;50.560;9.714;2023-12-14T13:23:29;6.30;99.90
10249;DHT22;5169;50.560;9.714;2023-12-14T13:25:58;6.40;99.90
10249;DHT22;5169;50.560;9.714;2023-12-14T13:28:24;6.30;99.90
10249;DHT22;5169;50.560;9.714;2023-12-14T13:30:51;6.40;99.90
10249;DHT22;5169;50.560;9.714;2023-12-14T13:33:17;6.40;99.90
10249;DHT22;5169;50.560;9.714;2023-12-14T13:35:42;6.30;99.90
10249;DHT22;5169;50.560;9.714;2023-12-14T13:38:08;6.30;99.90
10249;DHT22;5169;50.560;9.714;2023-12-14T13:40:36;6.10;99.90
10249;DHT22;5169;50.560;9.714;2023-12-14T13:43:04;6.10;99.90
10249;DHT22;5169;50.560;9.714;2023-12-14T13:45:36;6.10;99.90
10249;DHT22;5169;50.560;9.714;2023-12-14T13:48:01;6.10;99.90
10249;DHT22;5169;50.560;9.714;2023-12-14T13:50:29;6.20;99.90
10249;DHT22;5169;50.560;9.714;2023-12-14T13:52:57;6.20;99.90
10249;DHT22;5169;50.560;9.714;2023-12-14T13:55:22;6.20;99.90
10249;DHT22;5169;50.560;9.714;2023-12-14T13:57:48;6.20;99.90
10249;DHT22;5169;50.560;9.714;2023-12-14T14:00:15;6.30;99.90
10249;DHT22;5169;50.560;9.714;2023-12-14T14:02:41;6.30;99.90
10249;DHT22;5169;50.560;9.714;2023-12-14T14:05:12;6.20;99.90
10249;DHT22;5169;50.560;9.714;2023-12-14T14:07:37;6.10;99.90
10249;DHT22;5169;50.560;9.714;2023-12-14T14:10:03;6.10;99.90
10249;DHT22;5169;50.560;9.714;2023-12-14T14:12:29;6.10;99.90
10249;DHT22;5169;50.560;9.714;2023-12-14T14:14:54;6.10;99.90
10249;DHT22;5169;50.560;9.714;2023-12-14T14:17:25;5.90;99.90
10249;DHT22;5169;50.560;9.714;2023-12-14T14:19:50;5.90;99.90
10249;DHT22;5169;50.560;9.714;2023-12-14T14:22:18;5.90;99.90
10249;DHT22;5169;50.560;9.714;2023-12-14T14:24:44;5.80;99.90
10249;DHT22;5169;50.560;9.714;2023-12-14T14:27:10;5.90;99.90
10249;DHT22;5169;50.560;9.714;2023-12-14T14:29:35;5.80;99.90
10249;DHT22;5169;50.560;9.714;2023-12-14T14:32:01;5.80;99.90
10249;DHT22;5169;50.560;9.714;2023-12-14T14:34:27;5.90;99.90
10249;DHT22;5169;50.560;9.714;2023-12-14T14:36:55;5.80;99.90
10249;DHT22;5169;50.560;9.714;2023-12-14T14:39:23;5.80;99.90
10249;DHT22;5169;50.560;9.714;2023-12-14T14:41:48;5.80;99.90
10249;DHT22;5169;50.560;9.714;2023-12-14T14:44:14;5.80;99.90
10249;DHT22;5169;50.560;9.714;2023-12-14T14:46:40;5.80;99.90
10249;DHT22;5169;50.560;9.714;2023-12-14T14:49:08;5.70;99.90
10249;DHT22;5169;50.560;9.714;2023-12-14T14:51:33;5.70;99.90
10249;DHT22;5169;50.560;9.714;2023-12-14T14:53:59;5.60;99.90
10249;DHT22;5169;50.560;9.714;2023-12-14T14:56:24;5.50;99.90
10249;DHT22;5169;50.560;9.714;2023-12-14T14:58:50;5.60;99.90
10249;DHT22;5169;50.560;9.714;2023-12-14T15:01:16;5.50;99.90
10249;DHT22;5169;50.560;9.714;2023-12-14T15:03:41;5.50;99.90
10249;DHT22;5169;50.560;9.714;2023-12-14T15:06:09;5.60;99.90
10249;DHT22;5169;50.560;9.714;2023-12-14T15:08:35;5.60;99.90
10249;DHT22;5169;50.560;9.714;2023-12-14T15:11:05;5.60;99.90
10249;DHT22;5169;50.560;9.714;2023-12-14T15:13:33;5.60;99.90
10249;DHT22;5169;50.560;9.714;2023-12-14T15:15:59;5.50;99.90
10249;DHT22;5169;50.560;9.714;2023-12-14T15:18:24;5.50;99.90
10249;DHT22;5169;50.560;9.714;2023-12-14T15:20:50;5.50;99.90
10249;DHT22;5169;50.560;9.714;2023-12-14T15:23:18;5.50;99.90
10249;DHT22;5169;50.560;9.714;2023-12-14T15:25:44;5.50;99.90
10249;DHT22;5169;50.560;9.714;2023-12-14T15:28:09;5.50;99.90
10249;DHT22;5169;50.560;9.714;2023-12-14T15:30:35;5.40;99.90
10249;DHT22;5169;50.560;9.714;2023-12-14T15:33:03;5.30;99.90
10249;DHT22;5169;50.560;9.714;2023-12-14T15:35:31;5.30;99.90
10249;DHT22;5169;50.560;9.714;2023-12-14T15:37:58;5.30;99.90
10249;DHT22;5169;50.560;9.714;2023-12-14T15:40:24;5.20;99.90
10249;DHT22;5169;50.560;9.714;2023-12-14T15:42:50;5.20;99.90
10249;DHT22;5169;50.560;9.714;2023-12-14T15:45:17;5.20;99.90
10249;DHT22;5169;50.560;9.714;2023-12-14T15:47:42;5.10;99.90
10249;DHT22;5169;50.560;9.714;2023-12-14T15:50:10;5.10;99.90
10249;DHT22;5169;50.560;9.714;2023-12-14T15:52:36;5.10;99.90
10249;DHT22;5169;50.560;9.714;2023-12-14T15:55:01;5.10;99.90
10249;DHT22;5169;50.560;9.714;2023-12-14T15:57:30;5.10;99.90
10249;DHT22;5169;50.560;9.714;2023-12-14T15:59:56;5.20;99.90
10249;DHT22;5169;50.560;9.714;2023-12-14T16:02:21;5.20;99.90
10249;DHT22;5169;50.560;9.714;2023-12-14T16:04:47;5.10;99.90
10249;DHT22;5169;50.560;9.714;2023-12-14T16:07:14;5.10;99.90
10249;DHT22;5169;50.560;9.714;2023-12-14T16:09:40;5.00;99.90
10249;DHT22;5169;50.560;9.714;2023-12-14T16:12:07;5.00;99.90
10249;DHT22;5169;50.560;9.714;2023-12-14T16:14:32;5.10;99.90